sensor_id;sensor_type;location;lat;lon;timestamp;temperature;humidity
3550;DHT22;45572;48.804;8.330;2022-08-03T00:02:17;21.70;72.50
3550;DHT22;45572;48.804;8.330;2022-08-03T00:04:48;21.70;72.50
3550;DHT22;45572;48.804;8.330;2022-08-03T00:07:16;21.70;72.70
3550;DHT22;45572;48.804;8.330;2022-08-03T00:09:43;21.70;72.60
3550;DHT22;45572;48.804;8.330;2022-08-03T00:12:11;21.70;72.70
3550;DHT22;45572;48.804;8.330;2022-08-03T00:14:39;21.70;72.50
3550;DHT22;45572;48.804;8.330;2022-08-03T00:17:09;21.70;72.40
3550;DHT22;45572;48.804;8.330;2022-08-03T00:19:36;21.70;72.20
3550;DHT22;45572;48.804;8.330;2022-08-03T00:22:04;21.70;72.20
3550;DHT22;45572;48.804;8.330;2022-08-03T00:24:32;21.80;72.10
3550;DHT22;45572;48.804;8.330;2022-08-03T00:27:01;21.80;72.20
3550;DHT22;45572;48.804;8.330;2022-08-03T00:29:29;21.80;72.30
3550;DHT22;45572;48.804;8.330;2022-08-03T00:31:57;21.80;72.10
3550;DHT22;45572;48.804;8.330;2022-08-03T00:34:27;21.80;72.50
3550;DHT22;45572;48.804;8.330;2022-08-03T00:37:15;21.70;72.90
3550;DHT22;45572;48.804;8.330;2022-08-03T00:39:44;21.60;73.30
3550;DHT22;45572;48.804;8.330;2022-08-03T00:42:13;21.60;73.00
3550;DHT22;45572;48.804;8.330;2022-08-03T00:44:43;21.50;73.10
3550;DHT22;45572;48.804;8.330;2022-08-03T00:47:12;21.50;73.00
3550;DHT22;45572;48.804;8.330;2022-08-03T00:49:41;21.50;73.10
3550;DHT22;45572;48.804;8.330;2022-08-03T00:52:10;21.50;73.10
3550;DHT22;45572;48.804;8.330;2022-08-03T00:54:38;21.50;73.40
3550;DHT22;45572;48.804;8.330;2022-08-03T00:57:06;21.40;73.00
3550;DHT22;45572;48.804;8.330;2022-08-03T00:59:34;21.50;73.20
3550;DHT22;45572;48.804;8.330;2022-08-03T01:02:03;21.40;73.20
3550;DHT22;45572;48.804;8.330;2022-08-03T01:04:31;21.50;73.00
3550;DHT22;45572;48.804;8.330;2022-08-03T01:07:05;21.50;73.00
3550;DHT22;45572;48.804;8.330;2022-08-03T01:09:42;21.50;73.20
3550;DHT22;45572;48.804;8.330;2022-08-03T01:12:17;21.50;73.20
3550;DHT22;45572;48.804;8.330;2022-08-03T01:14:59;21.40;73.40
3550;DHT22;45572;48.804;8.330;2022-08-03T01:17:35;21.30;73.30
3550;DHT22;45572;48.804;8.330;2022-08-03T01:20:06;21.20;73.80
3550;DHT22;45572;48.804;8.330;2022-08-03T01:23:02;21.00;74.80
3550;DHT22;45572;48.804;8.330;2022-08-03T01:25:39;20.90;75.10
3550;DHT22;45572;48.804;8.330;2022-08-03T01:28:32;20.90;75.10
3550;DHT22;45572;48.804;8.330;2022-08-03T01:31:07;20.70;75.40
3550;DHT22;45572;48.804;8.330;2022-08-03T01:33:39;20.50;76.00
3550;DHT22;45572;48.804;8.330;2022-08-03T01:36:12;20.50;75.90
3550;DHT22;45572;48.804;8.330;2022-08-03T01:38:42;20.60;75.70
3550;DHT22;45572;48.804;8.330;2022-08-03T01:41:17;20.50;75.90
3550;DHT22;45572;48.804;8.330;2022-08-03T01:43:48;20.50;76.00
3550;DHT22;45572;48.804;8.330;2022-08-03T01:46:39;20.40;76.60
3550;DHT22;45572;48.804;8.330;2022-08-03T01:49:14;20.10;77.00
3550;DHT22;45572;48.804;8.330;2022-08-03T01:51:47;20.10;77.20
3550;DHT22;45572;48.804;8.330;2022-08-03T01:54:33;20.20;77.10
3550;DHT22;45572;48.804;8.330;2022-08-03T01:57:02;20.10;77.60
3550;DHT22;45572;48.804;8.330;2022-08-03T01:59:31;20.00;77.40
3550;DHT22;45572;48.804;8.330;2022-08-03T02:02:03;20.10;77.40
3550;DHT22;45572;48.804;8.330;2022-08-03T02:04:53;20.10;77.20
3550;DHT22;45572;48.804;8.330;2022-08-03T02:07:22;20.20;76.90
3550;DHT22;45572;48.804;8.330;2022-08-03T02:09:53;20.30;76.50
3550;DHT22;45572;48.804;8.330;2022-08-03T02:12:23;20.40;76.30
3550;DHT22;45572;48.804;8.330;2022-08-03T02:14:52;20.40;75.70
3550;DHT22;45572;48.804;8.330;2022-08-03T02:17:24;20.40;75.80
3550;DHT22;45572;48.804;8.330;2022-08-03T02:20:06;20.50;75.90
3550;DHT22;45572;48.804;8.330;2022-08-03T02:22:35;20.40;76.10
3550;DHT22;45572;48.804;8.330;2022-08-03T02:25:04;20.40;76.40
3550;DHT22;45572;48.804;8.330;2022-08-03T02:27:33;20.20;76.70
3550;DHT22;45572;48.804;8.330;2022-08-03T02:30:10;20.20;76.90
3550;DHT22;45572;48.804;8.330;2022-08-03T02:32:49;20.20;77.00
3550;DHT22;45572;48.804;8.330;2022-08-03T02:35:20;20.10;77.20
3550;DHT22;45572;48.804;8.330;2022-08-03T02:38:01;20.00;77.50
3550;DHT22;45572;48.804;8.330;2022-08-03T02:40:30;20.00;77.40
3550;DHT22;45572;48.804;8.330;2022-08-03T02:43:02;20.00;77.50
3550;DHT22;45572;48.804;8.330;2022-08-03T02:45:34;20.00;77.40
3550;DHT22;45572;48.804;8.330;2022-08-03T02:48:05;19.90;77.60
3550;DHT22;45572;48.804;8.330;2022-08-03T02:50:34;19.90;77.60
3550;DHT22;45572;48.804;8.330;2022-08-03T02:53:02;19.70;78.10
3550;DHT22;45572;48.804;8.330;2022-08-03T02:55:34;19.80;78.10
3550;DHT22;45572;48.804;8.330;2022-08-03T02:58:09;19.80;78.10
3550;DHT22;45572;48.804;8.330;2022-08-03T03:00:38;19.80;78.40
3550;DHT22;45572;48.804;8.330;2022-08-03T03:03:09;19.80;78.30
3550;DHT22;45572;48.804;8.330;2022-08-03T03:05:39;19.80;78.10
3550;DHT22;45572;48.804;8.330;2022-08-03T03:08:21;19.80;77.90
3550;DHT22;45572;48.804;8.330;2022-08-03T03:10:54;19.70;78.10
3550;DHT22;45572;48.804;8.330;2022-08-03T03:13:22;19.80;77.90
3550;DHT22;45572;48.804;8.330;2022-08-03T03:15:51;19.80;77.90
3550;DHT22;45572;48.804;8.330;2022-08-03T03:18:23;19.70;78.10
3550;DHT22;45572;48.804;8.330;2022-08-03T03:20:52;19.80;77.90
3550;DHT22;45572;48.804;8.330;2022-08-03T03:23:20;19.80;77.90
3550;DHT22;45572;48.804;8.330;2022-08-03T03:25:50;19.80;78.10
3550;DHT22;45572;48.804;8.330;2022-08-03T03:28:19;19.70;78.10
3550;DHT22;45572;48.804;8.330;2022-08-03T03:30:46;19.70;78.30
3550;DHT22;45572;48.804;8.330;2022-08-03T03:33:19;19.70;78.30
3550;DHT22;45572;48.804;8.330;2022-08-03T03:35:49;19.70;78.20
3550;DHT22;45572;48.804;8.330;2022-08-03T03:38:17;19.60;78.40
3550;DHT22;45572;48.804;8.330;2022-08-03T03:40:48;19.60;78.50
3550;DHT22;45572;48.804;8.330;2022-08-03T03:43:16;19.60;78.60
3550;DHT22;45572;48.804;8.330;2022-08-03T03:45:46;19.60;78.40
3550;DHT22;45572;48.804;8.330;2022-08-03T03:48:15;19.60;78.50
3550;DHT22;45572;48.804;8.330;2022-08-03T03:50:43;19.60;78.70
3550;DHT22;45572;48.804;8.330;2022-08-03T03:53:13;19.60;78.70
3550;DHT22;45572;48.804;8.330;2022-08-03T03:55:41;19.50;78.80
3550;DHT22;45572;48.804;8.330;2022-08-03T03:58:29;19.60;78.50
3550;DHT22;45572;48.804;8.330;2022-08-03T04:00:58;19.60;78.50
3550;DHT22;45572;48.804;8.330;2022-08-03T04:03:27;19.50;78.60
3550;DHT22;45572;48.804;8.330;2022-08-03T04:05:56;19.50;78.80
3550;DHT22;45572;48.804;8.330;2022-08-03T04:08:39;19.50;78.90
3550;DHT22;45572;48.804;8.330;2022-08-03T04:11:23;19.50;78.80
3550;DHT22;45572;48.804;8.330;2022-08-03T04:14:01;19.40;79.00
3550;DHT22;45572;48.804;8.330;2022-08-03T04:16:32;19.40;79.10
3550;DHT22;45572;48.804;8.330;2022-08-03T04:19:06;19.40;79.10
3550;DHT22;45572;48.804;8.330;2022-08-03T04:21:39;19.20;79.60
3550;DHT22;45572;48.804;8.330;2022-08-03T04:24:10;19.20;79.70
3550;DHT22;45572;48.804;8.330;2022-08-03T04:26:40;19.30;79.70
3550;DHT22;45572;48.804;8.330;2022-08-03T04:29:10;19.20;79.90
3550;DHT22;45572;48.804;8.330;2022-08-03T04:31:39;19.20;79.90
3550;DHT22;45572;48.804;8.330;2022-08-03T04:34:07;19.30;79.80
3550;DHT22;45572;48.804;8.330;2022-08-03T04:36:42;19.20;80.10
3550;DHT22;45572;48.804;8.330;2022-08-03T04:39:17;19.20;80.20
3550;DHT22;45572;48.804;8.330;2022-08-03T04:41:49;19.20;80.20
3550;DHT22;45572;48.804;8.330;2022-08-03T04:44:36;19.20;80.30
3550;DHT22;45572;48.804;8.330;2022-08-03T04:47:06;19.20;80.50
3550;DHT22;45572;48.804;8.330;2022-08-03T04:49:35;19.20;80.50
3550;DHT22;45572;48.804;8.330;2022-08-03T04:52:03;19.30;80.20
3550;DHT22;45572;48.804;8.330;2022-08-03T04:54:39;19.30;80.00
3550;DHT22;45572;48.804;8.330;2022-08-03T04:57:08;19.40;79.90
3550;DHT22;45572;48.804;8.330;2022-08-03T04:59:54;19.40;80.10
3550;DHT22;45572;48.804;8.330;2022-08-03T05:02:29;19.50;79.90
3550;DHT22;45572;48.804;8.330;2022-08-03T05:04:58;19.60;79.60
3550;DHT22;45572;48.804;8.330;2022-08-03T05:07:27;19.70;79.20
3550;DHT22;45572;48.804;8.330;2022-08-03T05:10:05;19.80;78.90
3550;DHT22;45572;48.804;8.330;2022-08-03T05:12:44;20.00;78.50
3550;DHT22;45572;48.804;8.330;2022-08-03T05:15:12;20.10;78.60
3550;DHT22;45572;48.804;8.330;2022-08-03T05:17:41;20.00;78.80
3550;DHT22;45572;48.804;8.330;2022-08-03T05:20:10;20.10;78.70
3550;DHT22;45572;48.804;8.330;2022-08-03T05:22:38;20.20;78.60
3550;DHT22;45572;48.804;8.330;2022-08-03T05:25:07;20.30;78.70
3550;DHT22;45572;48.804;8.330;2022-08-03T05:27:43;20.30;78.70
3550;DHT22;45572;48.804;8.330;2022-08-03T05:30:11;20.40;78.10
3550;DHT22;45572;48.804;8.330;2022-08-03T05:33:02;20.50;78.00
3550;DHT22;45572;48.804;8.330;2022-08-03T05:35:31;20.50;78.30
3550;DHT22;45572;48.804;8.330;2022-08-03T05:38:20;20.70;77.90
3550;DHT22;45572;48.804;8.330;2022-08-03T05:40:56;20.90;77.70
3550;DHT22;45572;48.804;8.330;2022-08-03T05:43:44;21.00;77.90
3550;DHT22;45572;48.804;8.330;2022-08-03T05:46:12;21.30;77.00
3550;DHT22;45572;48.804;8.330;2022-08-03T05:48:40;21.50;77.30
3550;DHT22;45572;48.804;8.330;2022-08-03T05:51:08;21.50;76.50
3550;DHT22;45572;48.804;8.330;2022-08-03T05:53:38;21.80;76.30
3550;DHT22;45572;48.804;8.330;2022-08-03T05:56:07;21.90;76.60
3550;DHT22;45572;48.804;8.330;2022-08-03T05:58:41;22.30;75.50
3550;DHT22;45572;48.804;8.330;2022-08-03T06:01:09;22.60;74.70
3550;DHT22;45572;48.804;8.330;2022-08-03T06:03:37;22.80;74.90
3550;DHT22;45572;48.804;8.330;2022-08-03T06:06:05;23.10;73.60
3550;DHT22;45572;48.804;8.330;2022-08-03T06:08:33;23.50;73.10
3550;DHT22;45572;48.804;8.330;2022-08-03T06:11:01;23.90;71.80
3550;DHT22;45572;48.804;8.330;2022-08-03T06:13:30;24.50;70.50
3550;DHT22;45572;48.804;8.330;2022-08-03T06:16:04;25.60;67.20
3550;DHT22;45572;48.804;8.330;2022-08-03T06:18:32;26.70;65.30
3550;DHT22;45572;48.804;8.330;2022-08-03T06:21:00;27.90;62.00
3550;DHT22;45572;48.804;8.330;2022-08-03T06:23:43;28.90;59.60
3550;DHT22;45572;48.804;8.330;2022-08-03T06:26:22;30.30;55.90
3550;DHT22;45572;48.804;8.330;2022-08-03T06:28:55;31.50;53.20
3550;DHT22;45572;48.804;8.330;2022-08-03T06:31:26;32.60;51.30
3550;DHT22;45572;48.804;8.330;2022-08-03T06:34:00;33.60;49.90
3550;DHT22;45572;48.804;8.330;2022-08-03T06:36:47;34.60;47.50
3550;DHT22;45572;48.804;8.330;2022-08-03T06:39:18;35.50;45.70
3550;DHT22;45572;48.804;8.330;2022-08-03T06:41:50;36.30;44.30
3550;DHT22;45572;48.804;8.330;2022-08-03T06:44:19;36.90;42.60
3550;DHT22;45572;48.804;8.330;2022-08-03T06:46:47;36.90;42.40
3550;DHT22;45572;48.804;8.330;2022-08-03T06:49:15;37.10;42.20
3550;DHT22;45572;48.804;8.330;2022-08-03T06:51:43;37.60;42.20
3550;DHT22;45572;48.804;8.330;2022-08-03T06:54:31;37.90;42.00
3550;DHT22;45572;48.804;8.330;2022-08-03T06:56:59;38.00;41.20
3550;DHT22;45572;48.804;8.330;2022-08-03T06:59:28;37.90;41.10
3550;DHT22;45572;48.804;8.330;2022-08-03T07:02:16;38.00;41.40
3550;DHT22;45572;48.804;8.330;2022-08-03T07:04:46;37.90;41.40
3550;DHT22;45572;48.804;8.330;2022-08-03T07:07:13;38.00;41.90
3550;DHT22;45572;48.804;8.330;2022-08-03T07:09:41;38.50;40.90
3550;DHT22;45572;48.804;8.330;2022-08-03T07:12:24;38.80;40.60
3550;DHT22;45572;48.804;8.330;2022-08-03T07:14:59;39.50;40.10
3550;DHT22;45572;48.804;8.330;2022-08-03T07:17:29;40.00;39.50
3550;DHT22;45572;48.804;8.330;2022-08-03T07:19:58;40.20;38.80
3550;DHT22;45572;48.804;8.330;2022-08-03T07:22:27;40.70;39.00
3550;DHT22;45572;48.804;8.330;2022-08-03T07:24:55;41.00;38.70
3550;DHT22;45572;48.804;8.330;2022-08-03T07:27:23;41.40;37.60
3550;DHT22;45572;48.804;8.330;2022-08-03T07:29:52;41.40;37.80
3550;DHT22;45572;48.804;8.330;2022-08-03T07:32:21;41.30;38.50
3550;DHT22;45572;48.804;8.330;2022-08-03T07:34:49;41.40;37.70
3550;DHT22;45572;48.804;8.330;2022-08-03T07:37:17;41.30;38.10
3550;DHT22;45572;48.804;8.330;2022-08-03T07:39:45;41.10;37.90
3550;DHT22;45572;48.804;8.330;2022-08-03T07:42:13;41.20;37.80
3550;DHT22;45572;48.804;8.330;2022-08-03T07:44:41;41.30;38.00
3550;DHT22;45572;48.804;8.330;2022-08-03T07:47:08;41.80;37.80
3550;DHT22;45572;48.804;8.330;2022-08-03T07:49:49;42.30;37.40
3550;DHT22;45572;48.804;8.330;2022-08-03T07:52:17;42.40;37.10
3550;DHT22;45572;48.804;8.330;2022-08-03T07:54:59;42.50;37.00
3550;DHT22;45572;48.804;8.330;2022-08-03T07:57:26;42.30;36.80
3550;DHT22;45572;48.804;8.330;2022-08-03T07:59:54;41.70;37.20
3550;DHT22;45572;48.804;8.330;2022-08-03T08:02:51;42.00;37.90
3550;DHT22;45572;48.804;8.330;2022-08-03T08:05:19;41.80;37.20
3550;DHT22;45572;48.804;8.330;2022-08-03T08:07:47;41.70;37.30
3550;DHT22;45572;48.804;8.330;2022-08-03T08:10:17;41.80;37.60
3550;DHT22;45572;48.804;8.330;2022-08-03T08:12:46;42.30;37.20
3550;DHT22;45572;48.804;8.330;2022-08-03T08:15:14;42.30;36.20
3550;DHT22;45572;48.804;8.330;2022-08-03T08:17:52;41.70;37.30
3550;DHT22;45572;48.804;8.330;2022-08-03T08:20:24;41.80;37.20
3550;DHT22;45572;48.804;8.330;2022-08-03T08:22:59;42.20;37.00
3550;DHT22;45572;48.804;8.330;2022-08-03T08:25:30;42.50;36.60
3550;DHT22;45572;48.804;8.330;2022-08-03T08:28:00;42.80;36.30
3550;DHT22;45572;48.804;8.330;2022-08-03T08:30:50;42.90;36.70
3550;DHT22;45572;48.804;8.330;2022-08-03T08:33:19;43.50;36.10
3550;DHT22;45572;48.804;8.330;2022-08-03T08:35:50;43.50;36.50
3550;DHT22;45572;48.804;8.330;2022-08-03T08:38:19;43.40;35.70
3550;DHT22;45572;48.804;8.330;2022-08-03T08:40:47;44.00;35.90
3550;DHT22;45572;48.804;8.330;2022-08-03T08:43:15;43.90;35.90
3550;DHT22;45572;48.804;8.330;2022-08-03T08:45:44;44.30;35.10
3550;DHT22;45572;48.804;8.330;2022-08-03T08:48:13;44.30;35.60
3550;DHT22;45572;48.804;8.330;2022-08-03T08:50:43;44.40;35.30
3550;DHT22;45572;48.804;8.330;2022-08-03T08:53:11;44.40;35.10
3550;DHT22;45572;48.804;8.330;2022-08-03T08:55:45;44.80;35.30
3550;DHT22;45572;48.804;8.330;2022-08-03T08:58:29;45.00;34.50
3550;DHT22;45572;48.804;8.330;2022-08-03T09:00:57;45.20;34.30
3550;DHT22;45572;48.804;8.330;2022-08-03T09:03:25;45.30;34.60
3550;DHT22;45572;48.804;8.330;2022-08-03T09:05:58;45.50;34.70
3550;DHT22;45572;48.804;8.330;2022-08-03T09:08:28;45.80;34.60
3550;DHT22;45572;48.804;8.330;2022-08-03T09:10:56;46.30;33.70
3550;DHT22;45572;48.804;8.330;2022-08-03T09:13:24;46.20;33.80
3550;DHT22;45572;48.804;8.330;2022-08-03T09:16:13;46.40;34.40
3550;DHT22;45572;48.804;8.330;2022-08-03T09:18:45;46.90;33.50
3550;DHT22;45572;48.804;8.330;2022-08-03T09:21:18;47.10;34.10
3550;DHT22;45572;48.804;8.330;2022-08-03T09:24:03;47.10;33.30
3550;DHT22;45572;48.804;8.330;2022-08-03T09:26:49;47.30;33.40
3550;DHT22;45572;48.804;8.330;2022-08-03T09:29:20;47.70;32.60
3550;DHT22;45572;48.804;8.330;2022-08-03T09:31:48;47.60;32.50
3550;DHT22;45572;48.804;8.330;2022-08-03T09:34:17;47.80;33.20
3550;DHT22;45572;48.804;8.330;2022-08-03T09:36:47;48.10;32.80
3550;DHT22;45572;48.804;8.330;2022-08-03T09:39:20;47.70;32.30
3550;DHT22;45572;48.804;8.330;2022-08-03T09:42:08;47.90;32.90
3550;DHT22;45572;48.804;8.330;2022-08-03T09:44:41;47.80;32.50
3550;DHT22;45572;48.804;8.330;2022-08-03T09:47:15;47.60;32.80
3550;DHT22;45572;48.804;8.330;2022-08-03T09:49:56;47.10;32.50
3550;DHT22;45572;48.804;8.330;2022-08-03T09:52:31;47.60;33.00
3550;DHT22;45572;48.804;8.330;2022-08-03T09:55:16;47.90;32.20
3550;DHT22;45572;48.804;8.330;2022-08-03T09:58:07;47.40;33.60
3550;DHT22;45572;48.804;8.330;2022-08-03T10:00:52;47.50;32.80
3550;DHT22;45572;48.804;8.330;2022-08-03T10:03:21;47.80;32.20
3550;DHT22;45572;48.804;8.330;2022-08-03T10:05:51;48.00;32.00
3550;DHT22;45572;48.804;8.330;2022-08-03T10:08:26;48.30;32.40
3550;DHT22;45572;48.804;8.330;2022-08-03T10:11:01;48.30;31.70
3550;DHT22;45572;48.804;8.330;2022-08-03T10:13:31;48.40;32.40
3550;DHT22;45572;48.804;8.330;2022-08-03T10:16:01;48.70;32.50
3550;DHT22;45572;48.804;8.330;2022-08-03T10:18:56;49.10;31.40
3550;DHT22;45572;48.804;8.330;2022-08-03T10:21:25;49.30;31.60
3550;DHT22;45572;48.804;8.330;2022-08-03T10:24:02;49.30;30.60
3550;DHT22;45572;48.804;8.330;2022-08-03T10:26:32;49.30;31.40
3550;DHT22;45572;48.804;8.330;2022-08-03T10:29:02;48.90;30.80
3550;DHT22;45572;48.804;8.330;2022-08-03T10:31:40;48.60;31.10
3550;DHT22;45572;48.804;8.330;2022-08-03T10:34:25;48.70;31.60
3550;DHT22;45572;48.804;8.330;2022-08-03T10:36:58;47.90;31.20
3550;DHT22;45572;48.804;8.330;2022-08-03T10:39:28;48.50;31.10
3550;DHT22;45572;48.804;8.330;2022-08-03T10:41:57;48.70;31.40
3550;DHT22;45572;48.804;8.330;2022-08-03T10:44:32;49.10;31.30
3550;DHT22;45572;48.804;8.330;2022-08-03T10:47:00;49.40;31.10
3550;DHT22;45572;48.804;8.330;2022-08-03T10:49:28;49.70;30.30
3550;DHT22;45572;48.804;8.330;2022-08-03T10:52:02;50.00;29.80
3550;DHT22;45572;48.804;8.330;2022-08-03T10:54:52;49.60;30.50
3550;DHT22;45572;48.804;8.330;2022-08-03T10:57:46;49.40;30.70
3550;DHT22;45572;48.804;8.330;2022-08-03T11:00:17;49.10;30.60
3550;DHT22;45572;48.804;8.330;2022-08-03T11:03:00;49.40;30.70
3550;DHT22;45572;48.804;8.330;2022-08-03T11:05:29;49.20;30.90
3550;DHT22;45572;48.804;8.330;2022-08-03T11:08:20;48.80;30.90
3550;DHT22;45572;48.804;8.330;2022-08-03T11:10:51;49.30;30.70
3550;DHT22;45572;48.804;8.330;2022-08-03T11:13:21;49.30;31.00
3550;DHT22;45572;48.804;8.330;2022-08-03T11:15:50;48.90;31.10
3550;DHT22;45572;48.804;8.330;2022-08-03T11:18:27;48.90;31.20
3550;DHT22;45572;48.804;8.330;2022-08-03T11:20:59;49.10;30.50
3550;DHT22;45572;48.804;8.330;2022-08-03T11:23:43;49.10;30.40
3550;DHT22;45572;48.804;8.330;2022-08-03T11:26:33;49.20;30.50
3550;DHT22;45572;48.804;8.330;2022-08-03T11:29:25;49.70;29.90
3550;DHT22;45572;48.804;8.330;2022-08-03T11:31:53;49.40;30.40
3550;DHT22;45572;48.804;8.330;2022-08-03T11:34:21;49.40;30.20
3550;DHT22;45572;48.804;8.330;2022-08-03T11:39:58;49.50;30.60
3550;DHT22;45572;48.804;8.330;2022-08-03T11:42:45;49.50;30.50
3550;DHT22;45572;48.804;8.330;2022-08-03T11:45:13;48.90;30.70
3550;DHT22;45572;48.804;8.330;2022-08-03T11:47:41;49.20;29.80
3550;DHT22;45572;48.804;8.330;2022-08-03T11:50:17;49.40;30.60
3550;DHT22;45572;48.804;8.330;2022-08-03T11:52:46;49.10;30.80
3550;DHT22;45572;48.804;8.330;2022-08-03T11:55:18;49.00;31.00
3550;DHT22;45572;48.804;8.330;2022-08-03T11:57:49;48.80;31.30
3550;DHT22;45572;48.804;8.330;2022-08-03T12:00:36;48.80;31.00
3550;DHT22;45572;48.804;8.330;2022-08-03T12:03:07;48.90;30.90
3550;DHT22;45572;48.804;8.330;2022-08-03T12:05:38;49.20;30.40
3550;DHT22;45572;48.804;8.330;2022-08-03T12:08:08;49.50;30.80
3550;DHT22;45572;48.804;8.330;2022-08-03T12:10:37;48.00;31.80
3550;DHT22;45572;48.804;8.330;2022-08-03T12:13:07;47.10;32.10
3550;DHT22;45572;48.804;8.330;2022-08-03T12:15:56;46.10;32.20
3550;DHT22;45572;48.804;8.330;2022-08-03T12:18:25;46.00;33.70
3550;DHT22;45572;48.804;8.330;2022-08-03T12:21:03;46.60;32.70
3550;DHT22;45572;48.804;8.330;2022-08-03T12:23:31;46.40;32.50
3550;DHT22;45572;48.804;8.330;2022-08-03T12:26:05;46.40;32.90
3550;DHT22;45572;48.804;8.330;2022-08-03T12:28:35;46.10;32.50
3550;DHT22;45572;48.804;8.330;2022-08-03T12:31:05;45.90;32.50
3550;DHT22;45572;48.804;8.330;2022-08-03T12:33:57;46.20;32.30
3550;DHT22;45572;48.804;8.330;2022-08-03T12:36:26;45.60;32.70
3550;DHT22;45572;48.804;8.330;2022-08-03T12:38:55;45.30;32.80
3550;DHT22;45572;48.804;8.330;2022-08-03T12:41:28;45.00;33.00
3550;DHT22;45572;48.804;8.330;2022-08-03T12:43:58;44.00;34.10
3550;DHT22;45572;48.804;8.330;2022-08-03T12:46:30;42.50;35.00
3550;DHT22;45572;48.804;8.330;2022-08-03T12:49:06;41.60;36.50
3550;DHT22;45572;48.804;8.330;2022-08-03T12:51:56;40.70;37.70
3550;DHT22;45572;48.804;8.330;2022-08-03T12:54:28;40.00;38.20
3550;DHT22;45572;48.804;8.330;2022-08-03T12:56:59;39.30;39.00
3550;DHT22;45572;48.804;8.330;2022-08-03T12:59:30;39.00;39.80
3550;DHT22;45572;48.804;8.330;2022-08-03T13:02:14;38.50;40.10
3550;DHT22;45572;48.804;8.330;2022-08-03T13:04:44;38.20;40.90
3550;DHT22;45572;48.804;8.330;2022-08-03T13:07:13;37.80;40.80
3550;DHT22;45572;48.804;8.330;2022-08-03T13:09:42;37.40;42.80
3550;DHT22;45572;48.804;8.330;2022-08-03T13:12:12;37.30;41.80
3550;DHT22;45572;48.804;8.330;2022-08-03T13:14:45;37.20;42.80
3550;DHT22;45572;48.804;8.330;2022-08-03T13:17:13;37.00;42.30
3550;DHT22;45572;48.804;8.330;2022-08-03T13:19:43;36.80;42.60
3550;DHT22;45572;48.804;8.330;2022-08-03T13:22:13;36.60;42.50
3550;DHT22;45572;48.804;8.330;2022-08-03T13:24:42;36.60;42.40
3550;DHT22;45572;48.804;8.330;2022-08-03T13:27:11;36.40;43.70
3550;DHT22;45572;48.804;8.330;2022-08-03T13:30:03;36.30;43.30
3550;DHT22;45572;48.804;8.330;2022-08-03T13:32:31;36.30;43.80
3550;DHT22;45572;48.804;8.330;2022-08-03T13:34:59;36.40;43.40
3550;DHT22;45572;48.804;8.330;2022-08-03T13:37:28;36.40;44.10
3550;DHT22;45572;48.804;8.330;2022-08-03T13:39:57;36.40;43.30
3550;DHT22;45572;48.804;8.330;2022-08-03T13:42:30;36.40;42.80
3550;DHT22;45572;48.804;8.330;2022-08-03T13:44:58;36.40;43.40
3550;DHT22;45572;48.804;8.330;2022-08-03T13:47:28;36.30;42.90
3550;DHT22;45572;48.804;8.330;2022-08-03T13:49:56;36.20;43.90
3550;DHT22;45572;48.804;8.330;2022-08-03T13:52:29;36.30;43.00
3550;DHT22;45572;48.804;8.330;2022-08-03T13:54:57;36.30;43.70
3550;DHT22;45572;48.804;8.330;2022-08-03T13:57:26;36.30;43.40
3550;DHT22;45572;48.804;8.330;2022-08-03T14:00:14;36.30;43.00
3550;DHT22;45572;48.804;8.330;2022-08-03T14:02:57;36.20;43.60
3550;DHT22;45572;48.804;8.330;2022-08-03T14:05:41;36.10;43.40
3550;DHT22;45572;48.804;8.330;2022-08-03T14:08:10;36.10;43.30
3550;DHT22;45572;48.804;8.330;2022-08-03T14:10:40;36.00;43.30
3550;DHT22;45572;48.804;8.330;2022-08-03T14:13:09;36.00;43.90
3550;DHT22;45572;48.804;8.330;2022-08-03T14:15:37;36.00;43.50
3550;DHT22;45572;48.804;8.330;2022-08-03T14:18:08;35.90;43.60
3550;DHT22;45572;48.804;8.330;2022-08-03T14:20:53;35.80;43.60
3550;DHT22;45572;48.804;8.330;2022-08-03T14:23:24;35.70;43.40
3550;DHT22;45572;48.804;8.330;2022-08-03T14:25:55;35.60;44.50
3550;DHT22;45572;48.804;8.330;2022-08-03T14:28:24;35.70;44.40
3550;DHT22;45572;48.804;8.330;2022-08-03T14:30:53;35.80;44.80
3550;DHT22;45572;48.804;8.330;2022-08-03T14:33:23;35.80;44.40
3550;DHT22;45572;48.804;8.330;2022-08-03T14:35:51;35.90;44.50
3550;DHT22;45572;48.804;8.330;2022-08-03T14:38:20;35.80;45.20
3550;DHT22;45572;48.804;8.330;2022-08-03T14:40:48;35.80;44.10
3550;DHT22;45572;48.804;8.330;2022-08-03T14:43:16;35.70;43.60
3550;DHT22;45572;48.804;8.330;2022-08-03T14:45:46;35.70;44.20
3550;DHT22;45572;48.804;8.330;2022-08-03T14:48:14;35.60;43.80
3550;DHT22;45572;48.804;8.330;2022-08-03T14:51:03;35.60;43.70
3550;DHT22;45572;48.804;8.330;2022-08-03T14:53:31;35.60;44.20
3550;DHT22;45572;48.804;8.330;2022-08-03T14:56:00;35.60;43.60
3550;DHT22;45572;48.804;8.330;2022-08-03T14:58:35;35.50;44.10
3550;DHT22;45572;48.804;8.330;2022-08-03T15:01:03;35.50;44.60
3550;DHT22;45572;48.804;8.330;2022-08-03T15:03:52;35.60;44.20
3550;DHT22;45572;48.804;8.330;2022-08-03T15:06:21;35.60;45.00
3550;DHT22;45572;48.804;8.330;2022-08-03T15:08:49;35.60;44.80
3550;DHT22;45572;48.804;8.330;2022-08-03T15:11:37;35.50;44.30
3550;DHT22;45572;48.804;8.330;2022-08-03T15:14:05;35.50;43.90
3550;DHT22;45572;48.804;8.330;2022-08-03T15:16:35;35.50;43.80
3550;DHT22;45572;48.804;8.330;2022-08-03T15:19:03;35.50;44.20
3550;DHT22;45572;48.804;8.330;2022-08-03T15:21:52;35.50;43.90
3550;DHT22;45572;48.804;8.330;2022-08-03T15:24:20;35.40;44.20
3550;DHT22;45572;48.804;8.330;2022-08-03T15:26:48;35.50;43.90
3550;DHT22;45572;48.804;8.330;2022-08-03T15:29:16;35.40;44.10
3550;DHT22;45572;48.804;8.330;2022-08-03T15:32:04;35.40;44.60
3550;DHT22;45572;48.804;8.330;2022-08-03T15:34:35;35.30;44.70
3550;DHT22;45572;48.804;8.330;2022-08-03T15:37:04;35.40;44.10
3550;DHT22;45572;48.804;8.330;2022-08-03T15:39:42;35.40;43.60
3550;DHT22;45572;48.804;8.330;2022-08-03T15:42:26;35.40;43.90
3550;DHT22;45572;48.804;8.330;2022-08-03T15:44:54;35.40;44.20
3550;DHT22;45572;48.804;8.330;2022-08-03T15:47:21;35.30;44.00
3550;DHT22;45572;48.804;8.330;2022-08-03T15:49:49;35.30;44.10
3550;DHT22;45572;48.804;8.330;2022-08-03T15:52:21;35.30;44.40
3550;DHT22;45572;48.804;8.330;2022-08-03T15:54:48;35.20;44.60
3550;DHT22;45572;48.804;8.330;2022-08-03T15:57:16;35.10;44.70
3550;DHT22;45572;48.804;8.330;2022-08-03T15:59:45;35.20;44.30
3550;DHT22;45572;48.804;8.330;2022-08-03T16:02:12;35.20;44.80
3550;DHT22;45572;48.804;8.330;2022-08-03T16:04:40;35.10;44.80
3550;DHT22;45572;48.804;8.330;2022-08-03T16:07:08;35.10;45.40
3550;DHT22;45572;48.804;8.330;2022-08-03T16:09:40;35.10;44.90
3550;DHT22;45572;48.804;8.330;2022-08-03T16:12:10;35.10;44.70
3550;DHT22;45572;48.804;8.330;2022-08-03T16:14:43;35.10;44.80
3550;DHT22;45572;48.804;8.330;2022-08-03T16:17:20;35.10;44.70
3550;DHT22;45572;48.804;8.330;2022-08-03T16:19:53;35.00;44.90
3550;DHT22;45572;48.804;8.330;2022-08-03T16:22:21;35.00;45.10
3550;DHT22;45572;48.804;8.330;2022-08-03T16:24:52;35.00;44.80